createdAt,value
2018-09-10T00:02:09.080Z,12.00
2018-09-10T00:04:38.506Z,8.80
2018-09-10T00:07:07.330Z,11.43
2018-09-10T00:09:36.562Z,8.80
2018-09-10T00:12:06.956Z,14.47
2018-09-10T00:14:36.161Z,9.10
2018-09-10T00:17:08.118Z,10.23
2018-09-10T00:19:41.383Z,11.80
2018-09-10T00:22:11.156Z,12.10
2018-09-10T00:24:39.941Z,9.63
2018-09-10T00:27:08.782Z,10.50
2018-09-10T00:29:37.714Z,7.60
2018-09-10T00:32:07.076Z,10.93
2018-09-10T00:34:36.983Z,9.93
2018-09-10T00:37:05.688Z,9.40
2018-09-10T00:39:34.497Z,8.80
2018-09-10T00:42:03.964Z,10.27
2018-09-10T00:44:33.462Z,11.40
2018-09-10T00:47:03.671Z,9.57
2018-09-10T00:49:34.021Z,13.70
2018-09-10T00:52:02.889Z,10.80
2018-09-10T00:54:31.805Z,11.97
2018-09-10T00:57:00.788Z,15.10
2018-09-10T00:59:29.538Z,13.63
2018-09-10T01:01:58.426Z,14.03
2018-09-10T01:04:27.165Z,13.00
2018-09-10T01:06:56.828Z,15.70
2018-09-10T01:09:25.675Z,14.47
2018-09-10T01:11:54.696Z,14.30
2018-09-10T01:14:24.387Z,15.30
2018-09-10T01:16:53.272Z,17.17
2018-09-10T01:21:58.413Z,12.07
2018-09-10T01:24:27.840Z,13.63
2018-09-10T01:26:58.980Z,13.37
2018-09-10T01:29:28.025Z,18.60
2018-09-10T01:31:58.700Z,12.77
2018-09-10T01:34:34.393Z,16.10
2018-09-10T01:37:05.706Z,17.60
2018-09-10T01:39:36.562Z,17.27
2018-09-10T01:42:05.838Z,14.93
2018-09-10T01:44:35.520Z,18.50
2018-09-10T01:47:04.907Z,20.17
2018-09-10T01:49:35.705Z,13.53
2018-09-10T01:52:06.960Z,12.53
2018-09-10T01:54:36.386Z,14.87
2018-09-10T01:59:45.694Z,20.10
2018-09-10T02:02:16.502Z,17.03
2018-09-10T02:04:45.436Z,13.90
2018-09-10T02:07:15.146Z,19.17
2018-09-10T02:09:44.923Z,19.30
2018-09-10T02:12:20.849Z,18.40
2018-09-10T02:14:49.339Z,21.77
2018-09-10T02:17:18.202Z,17.80
2018-09-10T02:19:47.172Z,18.17
2018-09-10T02:22:17.346Z,14.83
2018-09-10T02:24:46.546Z,13.90
2018-09-10T02:27:15.468Z,21.33
2018-09-10T02:29:44.232Z,17.10
2018-09-10T02:32:13.302Z,21.20
2018-09-10T02:34:42.063Z,16.90
2018-09-10T02:37:11.559Z,16.47
2018-09-10T02:39:40.373Z,19.90
2018-09-10T02:42:10.123Z,19.33
2018-09-10T02:44:39.253Z,21.33
2018-09-10T02:47:09.810Z,19.07
2018-09-10T02:49:38.623Z,20.20
2018-09-10T02:52:08.110Z,18.00
2018-09-10T02:54:38.102Z,18.00
2018-09-10T02:57:08.164Z,22.20
2018-09-10T02:59:36.869Z,19.53
2018-09-10T03:02:06.654Z,18.03
2018-09-10T03:04:35.603Z,26.60
2018-09-10T03:07:05.292Z,21.20
2018-09-10T03:09:34.173Z,19.53
2018-09-10T03:12:04.117Z,21.97
2018-09-10T03:14:33.292Z,21.10
2018-09-10T03:17:02.127Z,26.10
2018-09-10T03:22:18.720Z,18.43
2018-09-10T03:24:48.700Z,19.57
2018-09-10T03:27:18.366Z,18.63
2018-09-10T03:29:48.605Z,23.10
2018-09-10T03:32:17.771Z,22.00
2018-09-10T03:34:47.153Z,26.70
2018-09-10T03:37:18.879Z,26.30
2018-09-10T03:39:49.796Z,21.30
2018-09-10T03:42:19.131Z,26.67
2018-09-10T03:44:48.587Z,26.50
2018-09-10T03:47:18.203Z,23.23
2018-09-10T03:49:48.664Z,26.90
2018-09-10T03:52:18.247Z,23.17
2018-09-10T03:54:47.353Z,24.83
2018-09-10T03:57:16.986Z,25.23
2018-09-10T03:59:46.012Z,21.00
2018-09-10T04:02:16.152Z,22.43
2018-09-10T04:04:46.192Z,31.80
2018-09-10T04:07:15.060Z,26.80
2018-09-10T04:09:44.862Z,21.13
2018-09-10T04:12:14.788Z,19.30
2018-09-10T04:14:44.410Z,21.30
2018-09-10T04:17:18.726Z,23.17
2018-09-10T04:19:47.622Z,26.07
2018-09-10T04:22:17.082Z,23.20
2018-09-10T04:24:46.877Z,25.27
2018-09-10T04:27:18.348Z,24.53
2018-09-10T04:29:48.024Z,24.17
2018-09-10T04:32:17.866Z,28.47
2018-09-10T04:34:46.753Z,29.00
2018-09-10T04:37:15.657Z,22.67
2018-09-10T04:39:46.729Z,25.97
2018-09-10T04:42:18.514Z,28.73
2018-09-10T04:44:47.844Z,19.60
2018-09-10T04:47:16.962Z,21.47
2018-09-10T04:49:47.059Z,22.27
2018-09-10T04:52:16.018Z,25.13
2018-09-10T04:54:45.314Z,28.10
2018-09-10T04:57:15.938Z,18.23
2018-09-10T04:59:46.074Z,24.63
2018-09-10T05:02:14.666Z,23.27
2018-09-10T05:04:43.468Z,22.97
2018-09-10T05:07:12.261Z,21.03
2018-09-10T05:09:41.517Z,20.10
2018-09-10T05:12:10.406Z,22.17
2018-09-10T05:14:39.219Z,16.67
2018-09-10T05:19:43.411Z,24.47
2018-09-10T05:22:13.210Z,20.07
2018-09-10T05:24:41.938Z,17.30
2018-09-10T05:27:12.169Z,20.00
2018-09-10T05:29:41.645Z,21.83
2018-09-10T05:32:15.612Z,22.10
2018-09-10T05:34:44.570Z,20.73
2018-09-10T05:37:15.449Z,20.50
2018-09-10T05:39:44.267Z,18.53
2018-09-10T05:42:12.995Z,21.40
2018-09-10T05:44:41.869Z,20.20
2018-09-10T05:47:11.019Z,19.57
2018-09-10T05:49:39.883Z,25.40
2018-09-10T05:52:09.299Z,15.20
2018-09-10T05:54:39.059Z,22.20
2018-09-10T05:57:07.821Z,17.13
2018-09-10T05:59:36.642Z,18.83
2018-09-10T06:04:45.815Z,15.30
2018-09-10T06:07:17.002Z,18.20
2018-09-10T06:09:45.849Z,16.30
2018-09-10T06:12:15.571Z,16.30
2018-09-10T06:14:45.182Z,16.00
2018-09-10T06:17:14.764Z,13.73
2018-09-10T06:19:43.433Z,18.97
2018-09-10T06:22:12.229Z,16.50
2018-09-10T06:24:40.923Z,19.37
2018-09-10T06:27:09.638Z,19.40
2018-09-10T06:29:38.312Z,15.20
2018-09-10T06:32:10.943Z,18.30
2018-09-10T06:34:39.941Z,14.17
2018-09-10T06:37:11.770Z,15.70
2018-09-10T06:39:40.604Z,15.03
2018-09-10T06:42:09.360Z,19.70
2018-09-10T06:44:39.256Z,19.73
2018-09-10T06:47:09.645Z,20.30
2018-09-10T06:49:38.696Z,16.47
2018-09-10T06:52:08.238Z,18.57
2018-09-10T06:54:37.133Z,18.57
2018-09-10T06:57:06.152Z,21.53
2018-09-10T06:59:37.883Z,23.80
2018-09-10T07:02:08.732Z,21.87
2018-09-10T07:04:39.287Z,26.60
2018-09-10T07:07:09.251Z,22.87
2018-09-10T07:09:38.798Z,25.17
2018-09-10T07:12:08.617Z,22.50
2018-09-10T07:14:40.492Z,23.80
2018-09-10T07:17:09.602Z,24.40
2018-09-10T07:19:40.048Z,22.27
2018-09-10T07:22:08.985Z,26.40
2018-09-10T07:24:39.090Z,22.03
2018-09-10T07:27:08.263Z,21.87
2018-09-10T07:29:39.103Z,28.60
2018-09-10T07:32:09.721Z,22.40
2018-09-10T07:34:41.792Z,22.90
2018-09-10T07:37:11.543Z,24.40
2018-09-10T07:42:17.632Z,20.77
2018-09-10T07:44:47.398Z,15.37
2018-09-10T07:47:17.232Z,19.10
2018-09-10T07:49:46.212Z,18.40
2018-09-10T07:52:15.348Z,20.90
2018-09-10T07:54:47.712Z,17.97
2018-09-10T07:57:17.118Z,15.13
2018-09-10T07:59:46.606Z,16.00
2018-09-10T08:02:16.260Z,12.33
2018-09-10T08:04:47.321Z,15.43
2018-09-10T08:07:19.727Z,9.77
2018-09-10T08:09:48.254Z,9.70
2018-09-10T08:12:17.682Z,12.50
2018-09-10T08:14:49.854Z,8.27
2018-09-10T08:17:21.174Z,7.30
2018-09-10T08:19:50.292Z,7.77
2018-09-10T08:22:19.923Z,9.00
2018-09-10T08:24:49.884Z,5.87
2018-09-10T08:27:19.785Z,8.23
2018-09-10T08:29:48.830Z,7.60
2018-09-10T08:32:21.606Z,9.97
2018-09-10T08:34:53.530Z,8.87
2018-09-10T08:37:23.066Z,8.03
2018-09-10T08:39:52.484Z,7.30
2018-09-10T08:42:23.358Z,7.20
2018-09-10T08:44:54.275Z,7.33
2018-09-10T08:47:24.186Z,9.30
2018-09-10T08:49:55.898Z,9.87
2018-09-10T08:52:25.651Z,8.17
2018-09-10T08:54:58.714Z,6.80
2018-09-10T08:57:28.063Z,4.83
2018-09-10T08:59:56.912Z,6.17
2018-09-10T09:02:27.299Z,7.80
2018-09-10T09:04:55.987Z,4.47
2018-09-10T09:07:24.580Z,7.33
2018-09-10T09:09:53.054Z,7.70
2018-09-10T09:12:21.796Z,7.87
2018-09-10T09:14:50.436Z,4.87
2018-09-10T09:17:18.915Z,5.27
2018-09-10T09:19:47.679Z,5.50
2018-09-10T09:22:16.102Z,8.30
2018-09-10T09:24:44.635Z,7.00
2018-09-10T09:27:13.248Z,4.13
2018-09-10T09:29:42.716Z,5.10
2018-09-10T09:32:11.124Z,5.80
2018-09-10T09:34:45.264Z,7.83
2018-09-10T09:37:19.410Z,5.30
2018-09-10T09:39:54.425Z,5.30
2018-09-10T09:42:28.515Z,6.33
2018-09-10T09:45:02.309Z,3.60
2018-09-10T09:47:31.199Z,8.33
2018-09-10T09:49:59.918Z,3.97
2018-09-10T09:52:28.350Z,3.53
2018-09-10T09:54:57.019Z,5.87
2018-09-10T09:57:25.857Z,5.00
2018-09-10T09:59:54.499Z,3.80
2018-09-10T10:02:29.338Z,3.13
2018-09-10T10:04:58.324Z,3.70
2018-09-10T10:07:26.927Z,5.43
2018-09-10T10:09:55.519Z,6.80
2018-09-10T10:12:25.220Z,3.57
2018-09-10T10:14:53.713Z,5.37
2018-09-10T10:17:22.166Z,4.70
2018-09-10T10:19:51.659Z,4.70
2018-09-10T10:22:20.272Z,3.53
2018-09-10T10:24:49.074Z,4.70
2018-09-10T10:27:17.634Z,5.83
2018-09-10T10:29:47.284Z,7.07
2018-09-10T10:32:15.749Z,6.63
2018-09-10T10:34:44.311Z,5.33
2018-09-10T10:37:12.817Z,3.73
2018-09-10T10:39:41.487Z,5.27
2018-09-10T10:42:09.988Z,4.37
2018-09-10T10:44:38.033Z,3.77
2018-09-10T10:47:06.458Z,4.87
2018-09-10T10:49:34.933Z,3.53
2018-09-10T10:52:03.403Z,5.90
2018-09-10T10:54:31.805Z,5.97
2018-09-10T10:57:00.249Z,5.47
2018-09-10T10:59:28.791Z,4.67
2018-09-10T11:01:57.407Z,5.20
2018-09-10T11:04:26.077Z,8.83
2018-09-10T11:06:54.547Z,4.93
2018-09-10T11:09:22.954Z,6.33
2018-09-10T11:11:51.624Z,7.20
2018-09-10T11:14:20.506Z,5.13
2018-09-10T11:16:48.963Z,4.03
2018-09-10T11:19:18.093Z,6.00
2018-09-10T11:21:47.331Z,6.40
2018-09-10T11:24:16.019Z,5.57
2018-09-10T11:26:44.613Z,8.00
2018-09-10T11:29:13.017Z,3.77
2018-09-10T11:31:41.574Z,3.47
2018-09-10T11:34:10.682Z,5.80
2018-09-10T11:36:39.193Z,5.73
2018-09-10T11:39:07.735Z,5.97
2018-09-10T11:41:36.118Z,5.60
2018-09-10T11:44:04.491Z,5.63
2018-09-10T11:46:32.891Z,5.30
2018-09-10T11:49:01.356Z,5.30
2018-09-10T11:51:29.684Z,5.33
2018-09-10T11:53:58.232Z,7.43
2018-09-10T11:56:26.613Z,8.07
2018-09-10T11:58:54.917Z,8.50
2018-09-10T12:01:23.380Z,5.10
2018-09-10T12:03:52.093Z,7.53
2018-09-10T12:06:20.520Z,5.80
2018-09-10T12:08:49.012Z,4.07
2018-09-10T12:11:17.408Z,5.50
2018-09-10T12:13:45.849Z,3.57
2018-09-10T12:16:14.397Z,4.97
2018-09-10T12:18:42.760Z,5.17
2018-09-10T12:21:11.164Z,4.13
2018-09-10T12:23:39.491Z,5.03
2018-09-10T12:26:07.906Z,5.17
2018-09-10T12:28:36.263Z,5.87
2018-09-10T12:31:04.727Z,3.93
2018-09-10T12:33:33.187Z,8.07
2018-09-10T12:36:01.736Z,4.73
2018-09-10T12:38:30.116Z,3.70
2018-09-10T12:40:58.403Z,2.93
2018-09-10T12:43:27.239Z,3.73
2018-09-10T12:45:55.576Z,3.27
2018-09-10T12:48:24.064Z,3.33
2018-09-10T12:50:52.449Z,4.23
2018-09-10T12:53:21.077Z,4.20
2018-09-10T12:55:49.500Z,4.30
2018-09-10T12:58:17.906Z,4.10
2018-09-10T13:00:46.387Z,3.90
2018-09-10T13:03:14.838Z,4.83
2018-09-10T13:05:43.544Z,4.80
2018-09-10T13:08:12.039Z,4.03
2018-09-10T13:10:40.775Z,3.83
2018-09-10T13:13:09.036Z,3.17
2018-09-10T13:15:37.620Z,4.10
2018-09-10T13:18:06.163Z,2.70
2018-09-10T13:20:34.596Z,3.40
2018-09-10T13:23:03.007Z,3.53
2018-09-10T13:25:31.387Z,6.00
2018-09-10T13:27:59.844Z,6.67
2018-09-10T13:30:27.922Z,3.70
2018-09-10T13:32:56.323Z,5.60
2018-09-10T13:35:24.742Z,5.43
2018-09-10T13:37:53.177Z,4.53
2018-09-10T13:40:21.733Z,3.80
2018-09-10T13:42:50.342Z,2.93
2018-09-10T13:45:18.700Z,5.27
2018-09-10T13:47:47.093Z,4.40
2018-09-10T13:50:15.589Z,4.13
2018-09-10T13:52:44.208Z,5.30
2018-09-10T13:55:12.779Z,4.97
2018-09-10T13:57:41.152Z,3.20
2018-09-10T14:00:10.022Z,3.53
2018-09-10T14:02:38.481Z,6.33
2018-09-10T14:05:07.149Z,6.50
2018-09-10T14:07:35.555Z,2.90
2018-09-10T14:10:04.067Z,3.80
2018-09-10T14:12:32.631Z,5.43
2018-09-10T14:15:01.225Z,5.33
2018-09-10T14:17:29.589Z,7.43
2018-09-10T14:19:57.993Z,3.83
2018-09-10T14:22:26.480Z,4.00
2018-09-10T14:24:55.164Z,6.13
2018-09-10T14:27:23.621Z,5.47
2018-09-10T14:29:51.960Z,5.10
2018-09-10T14:32:20.575Z,5.43
2018-09-10T14:34:49.252Z,4.57
2018-09-10T14:37:17.585Z,7.70
2018-09-10T14:39:46.115Z,6.63
2018-09-10T14:42:14.569Z,4.27
2018-09-10T14:44:43.191Z,8.40
2018-09-10T14:47:11.806Z,5.50
2018-09-10T14:49:40.242Z,9.60
2018-09-10T14:52:08.835Z,4.10
2018-09-10T14:54:37.230Z,3.60
2018-09-10T14:57:05.621Z,4.60
2018-09-10T14:59:33.833Z,8.07
2018-09-10T15:02:02.355Z,6.23
2018-09-10T15:04:30.791Z,5.50
2018-09-10T15:06:59.152Z,5.10
2018-09-10T15:09:27.564Z,5.83
2018-09-10T15:11:55.965Z,7.37
2018-09-10T15:14:24.449Z,6.27
2018-09-10T15:16:52.852Z,6.37
2018-09-10T15:19:21.333Z,8.33
2018-09-10T15:21:49.738Z,5.83
2018-09-10T15:24:18.571Z,6.30
2018-09-10T15:26:49.386Z,4.10
2018-09-10T15:31:52.581Z,5.20
2018-09-10T15:34:24.326Z,5.23
2018-09-10T15:36:55.872Z,4.10
2018-09-10T15:39:25.474Z,4.80
2018-09-10T15:41:54.911Z,3.80
2018-09-10T15:44:23.641Z,4.63
2018-09-10T15:46:52.859Z,5.07
2018-09-10T15:49:21.713Z,5.30
2018-09-10T15:51:51.444Z,3.40
2018-09-10T15:54:20.266Z,6.83
2018-09-10T15:56:48.981Z,5.03
2018-09-10T15:59:17.733Z,6.57
2018-09-10T16:01:46.478Z,4.13
2018-09-10T16:04:15.295Z,7.50
2018-09-10T16:06:44.107Z,3.67
2018-09-10T16:09:13.016Z,10.80
2018-09-10T16:11:42.926Z,5.20
2018-09-10T16:14:11.984Z,4.60
2018-09-10T16:16:41.758Z,6.47
2018-09-10T16:19:10.760Z,8.10
2018-09-10T16:21:39.392Z,5.83
2018-09-10T16:24:08.682Z,5.37
2018-09-10T16:26:38.127Z,5.40
2018-09-10T16:29:07.104Z,5.97
2018-09-10T16:31:37.270Z,5.60
2018-09-10T16:34:07.239Z,5.10
2018-09-10T16:36:37.947Z,11.53
2018-09-10T16:39:10.811Z,5.43
2018-09-10T16:41:40.621Z,3.80
2018-09-10T16:44:09.694Z,7.97
2018-09-10T16:46:39.128Z,5.20
2018-09-10T16:49:09.313Z,7.57
2018-09-10T16:51:38.909Z,10.73
2018-09-10T16:54:09.565Z,6.60
2018-09-10T16:56:39.103Z,9.40
2018-09-10T16:59:08.650Z,4.60
2018-09-10T17:01:43.192Z,4.83
2018-09-10T17:06:55.475Z,5.90
2018-09-10T17:09:27.960Z,6.20
2018-09-10T17:11:56.986Z,7.40
2018-09-10T17:14:26.419Z,7.20
2018-09-10T17:16:55.982Z,5.83
2018-09-10T17:19:25.071Z,6.43
2018-09-10T17:21:53.744Z,8.10
2018-09-10T17:24:22.716Z,10.67
2018-09-10T17:26:51.555Z,6.03
2018-09-10T17:29:20.299Z,9.10
2018-09-10T17:31:48.995Z,7.20
2018-09-10T17:34:17.782Z,6.23
2018-09-10T17:36:46.800Z,7.53
2018-09-10T17:39:17.761Z,7.20
2018-09-10T17:41:46.299Z,6.57
2018-09-10T17:44:14.876Z,10.70
2018-09-10T17:49:18.616Z,10.93
2018-09-10T17:51:48.758Z,11.83
2018-09-10T17:54:17.226Z,8.37
2018-09-10T17:56:45.704Z,13.90
2018-09-10T17:59:14.335Z,8.33
2018-09-10T18:01:43.481Z,9.40
2018-09-10T18:04:12.678Z,11.07
2018-09-10T18:06:41.691Z,11.40
2018-09-10T18:09:11.465Z,7.20
2018-09-10T18:11:40.261Z,8.70
2018-09-10T18:14:10.464Z,6.53
2018-09-10T18:16:39.183Z,10.00
2018-09-10T18:19:07.950Z,11.23
2018-09-10T18:21:36.942Z,5.77
2018-09-10T18:24:06.456Z,8.80
2018-09-10T18:26:37.019Z,7.20
2018-09-10T18:29:06.013Z,7.87
2018-09-10T18:31:35.472Z,8.70
2018-09-10T18:34:04.335Z,9.90
2018-09-10T18:36:35.733Z,9.07
2018-09-10T18:39:07.668Z,7.73
2018-09-10T18:41:36.835Z,7.67
2018-09-10T18:44:05.940Z,4.73
2018-09-10T18:46:34.720Z,7.10
2018-09-10T18:49:03.454Z,10.63
2018-09-10T18:51:32.918Z,7.07
2018-09-10T18:54:01.910Z,8.43
2018-09-10T18:56:31.349Z,8.10
2018-09-10T18:59:00.406Z,7.40
2018-09-10T19:01:29.073Z,8.00
2018-09-10T19:03:58.431Z,7.87
2018-09-10T19:06:27.353Z,5.03
2018-09-10T19:08:56.421Z,7.83
2018-09-10T19:11:25.218Z,10.10
2018-09-10T19:13:53.710Z,6.70
2018-09-10T19:16:22.249Z,7.40
2018-09-10T19:18:51.017Z,10.63
2018-09-10T19:21:19.558Z,8.43
2018-09-10T19:23:50.325Z,6.93
2018-09-10T19:26:19.495Z,7.93
2018-09-10T19:28:48.646Z,8.43
2018-09-10T19:31:17.271Z,8.47
2018-09-10T19:33:46.753Z,7.23
2018-09-10T19:36:15.835Z,7.83
2018-09-10T19:38:46.189Z,8.27
2018-09-10T19:41:16.117Z,8.87
2018-09-10T19:43:45.636Z,7.80
2018-09-10T19:46:14.519Z,7.70
2018-09-10T19:48:44.145Z,7.20
2018-09-10T19:51:13.050Z,9.80
2018-09-10T19:53:42.466Z,12.10
2018-09-10T19:56:11.909Z,9.43
2018-09-10T19:58:40.995Z,8.77
2018-09-10T20:01:10.001Z,9.73
2018-09-10T20:03:40.229Z,6.63
2018-09-10T20:06:09.495Z,7.50
2018-09-10T20:08:38.071Z,11.13
2018-09-10T20:11:08.545Z,10.93
2018-09-10T20:13:37.428Z,8.10
2018-09-10T20:16:06.181Z,7.70
2018-09-10T20:18:34.855Z,8.00
2018-09-10T20:21:04.614Z,9.10
2018-09-10T20:23:33.985Z,9.90
2018-09-10T20:26:02.472Z,4.87
2018-09-10T20:28:31.342Z,7.57
2018-09-10T20:31:01.131Z,7.10
2018-09-10T20:33:33.893Z,7.63
2018-09-10T20:38:37.250Z,6.03
2018-09-10T20:41:09.291Z,9.37
2018-09-10T20:43:38.247Z,5.73
2018-09-10T20:46:07.196Z,6.63
2018-09-10T20:48:36.717Z,7.27
2018-09-10T20:51:05.478Z,5.57
2018-09-10T20:53:34.058Z,7.57
2018-09-10T20:56:02.919Z,5.20
2018-09-10T20:58:31.515Z,4.90
2018-09-10T21:01:00.227Z,5.83
2018-09-10T21:03:32.346Z,5.13
2018-09-10T21:06:00.839Z,5.17
2018-09-10T21:08:30.265Z,6.00
2018-09-10T21:10:58.945Z,6.80
2018-09-10T21:13:27.464Z,5.63
2018-09-10T21:15:56.567Z,6.40
2018-09-10T21:18:25.396Z,10.97
2018-09-10T21:20:54.081Z,5.03
2018-09-10T21:23:22.988Z,5.97
2018-09-10T21:25:52.343Z,5.83
2018-09-10T21:28:21.355Z,4.10
2018-09-10T21:30:50.645Z,8.73
2018-09-10T21:33:20.379Z,8.80
2018-09-10T21:35:49.099Z,5.87
2018-09-10T21:38:19.281Z,6.63
2018-09-10T21:40:47.875Z,5.60
2018-09-10T21:43:18.615Z,4.13
2018-09-10T21:45:47.281Z,5.37
2018-09-10T21:48:16.461Z,6.33
2018-09-10T21:50:45.165Z,6.43
2018-09-10T21:53:16.827Z,5.20
2018-09-10T21:55:47.375Z,5.10
2018-09-10T21:58:17.115Z,6.03
2018-09-10T22:00:52.013Z,6.93
2018-09-10T22:03:20.925Z,8.53
2018-09-10T22:05:53.976Z,6.90
2018-09-10T22:08:25.138Z,9.07
2018-09-10T22:10:54.034Z,5.97
2018-09-10T22:13:23.658Z,7.97
2018-09-10T22:15:53.479Z,5.80
2018-09-10T22:18:24.605Z,6.53
2018-09-10T22:20:55.150Z,6.63
2018-09-10T22:23:26.454Z,6.60
2018-09-10T22:25:56.434Z,7.40
2018-09-10T22:28:26.024Z,8.07
2018-09-10T22:30:55.644Z,5.90
2018-09-10T22:33:25.105Z,6.80
2018-09-10T22:35:54.704Z,9.53
2018-09-10T22:38:23.713Z,10.00
2018-09-10T22:40:52.483Z,4.70
2018-09-10T22:43:21.484Z,5.00
2018-09-10T22:45:51.367Z,8.13
2018-09-10T22:48:20.079Z,7.10
2018-09-10T22:50:50.472Z,6.90
2018-09-10T22:53:19.105Z,6.50
2018-09-10T22:55:52.250Z,8.60
2018-09-10T23:01:02.480Z,6.40
2018-09-10T23:03:32.301Z,5.00
2018-09-10T23:06:02.045Z,6.43
2018-09-10T23:08:30.951Z,5.93
2018-09-10T23:10:59.725Z,8.50
2018-09-10T23:13:29.414Z,5.77
2018-09-10T23:16:00.906Z,8.03
2018-09-10T23:18:34.045Z,5.73
2018-09-10T23:21:04.971Z,6.50
2018-09-10T23:23:34.152Z,7.80
2018-09-10T23:26:02.874Z,6.27
2018-09-10T23:28:33.618Z,11.67
2018-09-10T23:31:02.218Z,6.20
2018-09-10T23:33:31.383Z,6.63
2018-09-10T23:36:00.449Z,7.93
2018-09-10T23:38:30.116Z,6.30
2018-09-10T23:41:00.077Z,8.47
2018-09-10T23:43:31.309Z,6.23
2018-09-10T23:46:00.649Z,6.83
2018-09-10T23:48:29.429Z,7.10
2018-09-10T23:50:58.702Z,5.53
2018-09-10T23:53:27.692Z,5.40
2018-09-10T23:55:56.689Z,7.37
2018-09-10T23:58:27.167Z,6.40
